Three Stars — 3ELI2 — position and weather

sailwx.info

Track history (hours):
 
Tides and Currents Weather Stations Pressure Air Temp Water Temp Dewpoint Dewpoint Depression Visibility Wind Speed Wind Dir Waves Ship Positions

Three Stars

Last reported at 2014-Aug-31 15:09 UTC. Time now 2014-Oct-31 10:45 UTC.
Position N 33°40' W 008°36'.
Warning: this ship's position is months out of date.

Length 225 m; draft 7.1 m.

Type: Cargo ship. MMSI: 372950000.

Date/timePositionNaut miles runAvg speedWind from/ knotsBaromVisibWave heightAir tempDewpointWater temp
2014-Aug-31 15:09N 33°40' W 008°36'5313.9
2014-Aug-31 11:19N 34°20' W 007°53'5313.8
2014-Aug-31 07:29N 34°58' W 007°09'1313.9
2014-Aug-31 06:33N 35°08' W 006°58'190 7.0
2014-Aug-30 03:29N 36°18' W 003°20'1314.1
2014-Aug-30 02:33N 36°20' W 003°04'1514.7
2014-Aug-30 01:30N 36°22' W 002°45'1414.6
2014-Aug-30 00:34N 36°24' W 002°28'1514.6
2014-Aug-29 23:33N 36°26' W 002°10'1211.9
2014-Aug-29 22:33N 36°27' W 001°55'1413.9
2014-Aug-29 21:32N 36°30' W 001°38'1414.0
2014-Aug-29 20:34N 36°31' W 001°21'1414.0
2014-Aug-29 19:33N 36°33' W 001°04'1413.7
2014-Aug-29 18:34N 36°35' W 000°47'1413.4
2014-Aug-29 17:33N 36°37' W 000°30'1212.0
2014-Aug-29 16:33N 36°39' W 000°16'1413.9
2014-Aug-29 15:33N 36°41' E 000°01'1313.5
2014-Aug-29 14:33N 36°43' E 000°18'1313.4
2014-Aug-29 13:33N 36°45' E 000°35'1312.9
2014-Aug-29 12:33N 36°47' E 000°51'1313.1
2014-Aug-29 11:33N 36°49' E 001°07'1313.4
2014-Aug-29 10:33N 36°51' E 001°23'2512.5
2014-Aug-29 08:33N 36°54' E 001°54'1312.7
2014-Aug-29 07:33N 36°56' E 002°10'1312.5
2014-Aug-29 06:33N 36°58' E 002°26'1312.6
2014-Aug-29 05:33N 36°60' E 002°41'1212.3
2014-Aug-29 04:33N 37°01' E 002°56'1111.3
2014-Aug-29 03:33N 37°03' E 003°10'2812.3
2014-Aug-29 01:14N 37°07' E 003°46'913.3
2014-Aug-29 00:33N 37°09' E 003°57'1313.5
2014-Aug-28 23:33N 37°10' E 004°14'1313.0
2014-Aug-28 22:31N 37°12' E 004°30'1313.3
2014-Aug-28 21:33N 37°14' E 004°46'1211.7
2014-Aug-28 20:33N 37°16' E 005°01'1414.0
2014-Aug-28 19:33N 37°18' E 005°18'1414.3
2014-Aug-28 18:33N 37°20' E 005°36'1514.8
2014-Aug-28 17:33N 37°22' E 005°55'1514.5
2014-Aug-28 16:33N 37°24' E 006°13'1714.1
2014-Aug-28 15:22N 37°27' E 006°33'8011.3
2014-Aug-28 08:19N 37°38' E 008°13'1113.6
2014-Aug-28 07:32N 37°40' E 008°26'1413.8
2014-Aug-28 06:33N 37°42' E 008°43'1313.0
2014-Aug-28 05:33N 37°43' E 008°60'1312.8
2014-Aug-28 04:33N 37°42' E 009°16'1312.5
2014-Aug-28 03:33N 37°41' E 009°32'1111.5
2014-Aug-28 02:33N 37°40' E 009°46'1312.6
2014-Aug-28 01:33N 37°39' E 010°02'1312.7
2014-Aug-28 00:33N 37°37' E 010°18'1313.0
2014-Aug-27 23:33N 37°35' E 010°34'1313.4
2014-Aug-27 22:33N 37°32' E 010°50'1413.6
2014-Aug-27 21:33N 37°28' E 011°07'14 2.5
2014-Aug-27 16:12N 37°23' E 011°22'3513.2
2014-Aug-27 13:34N 37°09' E 012°03'1413.8
2014-Aug-27 12:34N 37°04' E 012°19'1413.9
2014-Aug-27 11:33N 37°01' E 012°36'1413.8
2014-Aug-27 10:33N 36°57' E 012°53'1313.5
2014-Aug-27 09:33N 36°54' E 013°09'1313.5
2014-Aug-27 08:33N 36°50' E 013°25'1413.6
2014-Aug-27 07:33N 36°47' E 013°42'1413.6
2014-Aug-27 06:33N 36°44' E 013°58'1313.3
2014-Aug-27 05:33N 36°40' E 014°14'1313.0
2014-Aug-27 04:33N 36°36' E 014°30'1312.8
2014-Aug-27 03:33N 36°35' E 014°46'  
Track history (hours):
 
Tides and Currents Weather Stations Pressure Air Temp Water Temp Dewpoint Dewpoint Depression Visibility Wind Speed Wind Dir Waves Ship Positions

Three Stars

Last reported at 2014-Aug-31 15:09 UTC. Time now 2014-Oct-31 10:45 UTC.
Position N 33°40' W 008°36'.
Warning: this ship's position is months out of date.

Length 225 m; draft 7.1 m.

Type: Cargo ship. MMSI: 372950000.

Date/timePositionNaut miles runAvg speedWind from/ knotsBaromVisibWave heightAir tempDewpointWater temp
2014-Aug-31 15:09N 33°40' W 008°36'5313.9
2014-Aug-31 11:19N 34°20' W 007°53'5313.8
2014-Aug-31 07:29N 34°58' W 007°09'1313.9
2014-Aug-31 06:33N 35°08' W 006°58'190 7.0
2014-Aug-30 03:29N 36°18' W 003°20'1314.1
2014-Aug-30 02:33N 36°20' W 003°04'1514.7
2014-Aug-30 01:30N 36°22' W 002°45'1414.6
2014-Aug-30 00:34N 36°24' W 002°28'1514.6
2014-Aug-29 23:33N 36°26' W 002°10'1211.9
2014-Aug-29 22:33N 36°27' W 001°55'1413.9
2014-Aug-29 21:32N 36°30' W 001°38'1414.0
2014-Aug-29 20:34N 36°31' W 001°21'1414.0
2014-Aug-29 19:33N 36°33' W 001°04'1413.7
2014-Aug-29 18:34N 36°35' W 000°47'1413.4
2014-Aug-29 17:33N 36°37' W 000°30'1212.0
2014-Aug-29 16:33N 36°39' W 000°16'1413.9
2014-Aug-29 15:33N 36°41' E 000°01'1313.5
2014-Aug-29 14:33N 36°43' E 000°18'1313.4
2014-Aug-29 13:33N 36°45' E 000°35'1312.9
2014-Aug-29 12:33N 36°47' E 000°51'1313.1
2014-Aug-29 11:33N 36°49' E 001°07'1313.4
2014-Aug-29 10:33N 36°51' E 001°23'2512.5
2014-Aug-29 08:33N 36°54' E 001°54'1312.7
2014-Aug-29 07:33N 36°56' E 002°10'1312.5
2014-Aug-29 06:33N 36°58' E 002°26'1312.6
2014-Aug-29 05:33N 36°60' E 002°41'1212.3
2014-Aug-29 04:33N 37°01' E 002°56'1111.3
2014-Aug-29 03:33N 37°03' E 003°10'2812.3
2014-Aug-29 01:14N 37°07' E 003°46'913.3
2014-Aug-29 00:33N 37°09' E 003°57'1313.5
2014-Aug-28 23:33N 37°10' E 004°14'1313.0
2014-Aug-28 22:31N 37°12' E 004°30'1313.3
2014-Aug-28 21:33N 37°14' E 004°46'1211.7
2014-Aug-28 20:33N 37°16' E 005°01'1414.0
2014-Aug-28 19:33N 37°18' E 005°18'1414.3
2014-Aug-28 18:33N 37°20' E 005°36'1514.8
2014-Aug-28 17:33N 37°22' E 005°55'1514.5
2014-Aug-28 16:33N 37°24' E 006°13'1714.1
2014-Aug-28 15:22N 37°27' E 006°33'8011.3
2014-Aug-28 08:19N 37°38' E 008°13'1113.6
2014-Aug-28 07:32N 37°40' E 008°26'1413.8
2014-Aug-28 06:33N 37°42' E 008°43'1313.0
2014-Aug-28 05:33N 37°43' E 008°60'1312.8
2014-Aug-28 04:33N 37°42' E 009°16'1312.5
2014-Aug-28 03:33N 37°41' E 009°32'1111.5
2014-Aug-28 02:33N 37°40' E 009°46'1312.6
2014-Aug-28 01:33N 37°39' E 010°02'1312.7
2014-Aug-28 00:33N 37°37' E 010°18'1313.0
2014-Aug-27 23:33N 37°35' E 010°34'1313.4
2014-Aug-27 22:33N 37°32' E 010°50'1413.6
2014-Aug-27 21:33N 37°28' E 011°07'14 2.5
2014-Aug-27 16:12N 37°23' E 011°22'3513.2
2014-Aug-27 13:34N 37°09' E 012°03'1413.8
2014-Aug-27 12:34N 37°04' E 012°19'1413.9
2014-Aug-27 11:33N 37°01' E 012°36'1413.8
2014-Aug-27 10:33N 36°57' E 012°53'1313.5
2014-Aug-27 09:33N 36°54' E 013°09'1313.5
2014-Aug-27 08:33N 36°50' E 013°25'1413.6
2014-Aug-27 07:33N 36°47' E 013°42'1413.6
2014-Aug-27 06:33N 36°44' E 013°58'1313.3
2014-Aug-27 05:33N 36°40' E 014°14'1313.0
2014-Aug-27 04:33N 36°36' E 014°30'1312.8
2014-Aug-27 03:33N 36°35' E 014°46'  

Dump ship's entire track history